Terminal Aerodrome Forecast
Issued by NWS Green Bay, WI

Home | Current Version | Previous Version | Graphics & Text | Print | Product List | Glossary On
Versions: 1 2 3 4 5 6 7 8 9 10 11 12
000
FTUS43 KGRB 230531
TAFGRB
TAF
KGRB 230531Z 2306/2406 20006KT 6SM BR SKC
      TEMPO 2306/2310 3SM BR
     FM231000 21005KT 4SM BR SKC
      TEMPO 2310/2314 2SM BR
     FM231400 21006KT P6SM SKC
     FM231600 22009G16KT P6SM SCT250
     FM240000 18004KT P6SM SKC=

USA.gov is the U.S. government's official web portal to all federal, state and local government web resources and services.